Charlottetown, Prince Edward Island

11:22 AM ADT on August 31, 2016 (GMT -0300)
Charlottetown | | Change Station

Elev 157 ft 46.29 °N, 63.13 °W | Updated 22 minutes ago

Mostly Cloudy
Mostly Cloudy
70 °F
Feels Like 70 °F
N
12
Wind Variable Wind from SSW

Today
High -- | Low -- °F
--% Chance of Precip.
Yesterday
High -- | Low -- °F
Precip. -- in
Pressure 29.88 in
Visibility 15.0 miles
Clouds Few 2000 ft
Few 4000 ft
Mostly Cloudy 13000 ft
Dew Point 61 °F
Humidity 73%
Rainfall 0.00 in
Snow Depth Not available.
6:32 AM 7:52 PM
Waning Crescent, 1% visible
METAR CYYG 311400Z 20010KT 15SM FEW020 FEW040 BKN130 21/16 A2987 RMK CF1CU1AC6 CF TR CU TR SLP116 DENSITY ALT 900FT
Pressure 29.88 in
Visibility 15.0 miles
Clouds Few 2000 ft
Few 4000 ft
Mostly Cloudy 13000 ft
Dew Point 61 °F
Humidity 73%
Rainfall 0.00 in
Snow Depth Not available.
6:32 AM 7:52 PM
Waning Crescent, 1% visible
METAR CYYG 311400Z 20010KT 15SM FEW020 FEW040 BKN130 21/16 A2987 RMK CF1CU1AC6 CF TR CU TR SLP116 DENSITY ALT 900FT

10-Day Weather Forecast

No radar image for this location.
×

Almanac

Astronomy

Aug. 31, 2016 Rise Set
Actual Time
Civil Twilight
Nautical Twilight
Astronomical Twilight
Moon
Length of Visible Light
Length of Day
Tomorrow will be .
, % of the Moon is Illuminated

Today's Extremes

Country Highs Country Lows

Community

WunderPhotos

Upload Photos

1,936,091 photos uploaded!

WunderBlog® & News

Nearby

Air Quality

  Air Quality AQ Index Pollutant
Not available.

Snow Depth

Station Depth Elevation

Earthquake Activity

City Distance Mag. Time & Date
Minimum magnitude displayed is 2.5.

Coastal Water Temperatures

Place Temperature

Stations

Nearby Weather Stations

Station Location Temp. Windchill Dew Point Humidity Wind Precip. Elev Updated Type
                   

Watches & Warnings

There are currently no watches in effect.